Time;durP1;ratioP1;P1;durP2;ratioP2;P2;SDS_P1;SDS_P2;PMS_P1;PMS_P2;Temp;Humidity;BMP_temperature;BMP_pressure;BME280_temperature;BME280_humidity;BME280_pressure;Samples;Min_cycle;Max_cycle;Signal;HPM_P1;HPM_P2
2023/10/13 00:00:36;;;;;;;137.98;16.95;;;;;;;;;;4983389;28;20498;-55
2023/10/13 00:03:03;;;;;;;227.98;20.55;;;;;;;;;;4985567;28;20029;-53
2023/10/13 00:05:30;;;;;;;153.95;15.68;;;;;;;;;;4983678;28;20068;-53
2023/10/13 00:07:55;;;;;;;183.73;17.58;;;;;;;;;;4984795;28;20072;-53
2023/10/13 00:10:21;;;;;;;196.73;18.25;;;;;;;;;;4984056;28;20038;-53
2023/10/13 00:12:49;;;;;;;201.15;18.08;;;;;;;;;;4984905;28;20092;-54
2023/10/13 00:15:20;;;;;;;121.70;16.50;;;;;;;;;;4983586;28;20101;-54
2023/10/13 00:17:46;;;;;;;196.70;17.97;;;;;;;;;;4984670;28;20704;-52
2023/10/13 00:20:17;;;;;;;136.27;15.35;;;;;;;;;;4983008;28;20123;-55
2023/10/13 00:22:44;;;;;;;207.35;18.23;;;;;;;;;;4984693;28;20042;-54
2023/10/13 00:25:19;;;;;;;155.25;14.68;;;;;;;;;;4984315;28;20349;-55
2023/10/13 00:27:44;;;;;;;180.55;18.25;;;;;;;;;;4986025;28;20028;-53
2023/10/13 00:30:18;;;;;;;221.43;19.02;;;;;;;;;;4984242;28;20026;-54
2023/10/13 00:32:44;;;;;;;150.10;16.27;;;;;;;;;;4988150;28;20675;-53
2023/10/13 00:35:14;;;;;;;171.15;16.65;;;;;;;;;;4989669;28;20048;-55
2023/10/13 00:37:46;;;;;;;146.18;16.25;;;;;;;;;;4989507;28;20025;-53
2023/10/13 00:42:55;;;;;;;165.23;16.00;;;;;;;;;;4988451;28;20021;-53
2023/10/13 00:45:20;;;;;;;129.90;13.63;;;;;;;;;;4990075;28;20413;-54
2023/10/13 00:47:49;;;;;;;193.65;16.15;;;;;;;;;;4987527;28;20306;-55
2023/10/13 00:50:17;;;;;;;123.60;14.35;;;;;;;;;;4996896;28;20014;-55
2023/10/13 00:52:46;;;;;;;140.63;15.55;;;;;;;;;;4993897;28;20022;-54
2023/10/13 00:55:13;;;;;;;138.32;14.20;;;;;;;;;;4989616;28;20025;-54
2023/10/13 00:57:40;;;;;;;157.50;16.13;;;;;;;;;;4991940;28;20160;-54
2023/10/13 01:00:18;;;;;;;155.20;14.10;;;;;;;;;;4991582;28;20093;-54
2023/10/13 01:02:45;;;;;;;148.63;16.08;;;;;;;;;;4989112;28;20034;-53
2023/10/13 01:05:11;;;;;;;145.95;15.48;;;;;;;;;;4986753;28;20382;-52
2023/10/13 01:07:39;;;;;;;111.20;13.15;;;;;;;;;;4991691;28;20041;-55
2023/10/13 01:10:04;;;;;;;154.20;16.33;;;;;;;;;;4992020;28;20030;-54
2023/10/13 01:12:30;;;;;;;160.18;15.90;;;;;;;;;;4988632;28;20057;-55
2023/10/13 01:14:59;;;;;;;186.77;17.45;;;;;;;;;;4996827;28;20033;-54
2023/10/13 01:17:31;;;;;;;127.50;15.80;;;;;;;;;;4989830;28;20054;-55
2023/10/13 01:19:58;;;;;;;228.50;17.80;;;;;;;;;;4988064;28;20026;-55
2023/10/13 01:22:23;;;;;;;136.30;15.60;;;;;;;;;;4989586;28;20549;-54
2023/10/13 01:24:48;;;;;;;144.43;13.53;;;;;;;;;;4989932;28;20091;-53
2023/10/13 01:29:47;;;;;;;143.27;15.45;;;;;;;;;;4990131;28;20037;-53
2023/10/13 01:32:12;;;;;;;160.32;15.25;;;;;;;;;;4986485;28;20044;-53
2023/10/13 01:34:38;;;;;;;163.27;16.77;;;;;;;;;;4988678;28;20109;-54
2023/10/13 01:37:06;;;;;;;169.93;14.00;;;;;;;;;;4988131;28;20400;-53
2023/10/13 01:39:31;;;;;;;162.30;16.63;;;;;;;;;;4989030;28;20061;-53
2023/10/13 01:41:56;;;;;;;178.03;17.37;;;;;;;;;;4986820;28;20058;-53
2023/10/13 01:44:30;;;;;;;117.28;15.63;;;;;;;;;;4990936;28;20269;-52
2023/10/13 01:46:58;;;;;;;190.80;16.67;;;;;;;;;;4987362;28;20608;-53
2023/10/13 01:49:24;;;;;;;141.05;13.93;;;;;;;;;;4987597;28;20022;-54
2023/10/13 01:51:50;;;;;;;196.45;16.70;;;;;;;;;;4985527;28;20041;-52
2023/10/13 01:54:15;;;;;;;157.13;12.93;;;;;;;;;;4988054;28;20026;-52
2023/10/13 01:56:44;;;;;;;125.90;12.90;;;;;;;;;;4987097;28;20039;-54
2023/10/13 01:59:12;;;;;;;214.25;16.38;;;;;;;;;;4985989;28;20030;-54
2023/10/13 02:01:38;;;;;;;176.05;16.13;;;;;;;;;;4989241;28;20274;-53
2023/10/13 02:04:03;;;;;;;177.38;16.27;;;;;;;;;;4985329;28;20485;-53
2023/10/13 02:06:32;;;;;;;168.23;15.90;;;;;;;;;;4986422;28;20049;-55
2023/10/13 02:09:12;;;;;;;197.63;16.42;;;;;;;;;;4988828;28;20026;-54
2023/10/13 02:11:41;;;;;;;151.50;14.13;;;;;;;;;;4987082;28;20449;-55
2023/10/13 02:14:07;;;;;;;161.48;15.80;;;;;;;;;;4986490;28;20165;-54
2023/10/13 02:16:32;;;;;;;147.80;15.77;;;;;;;;;;4987661;28;20128;-54
2023/10/13 02:19:03;;;;;;;230.98;18.75;;;;;;;;;;4984630;28;20030;-54
2023/10/13 02:21:31;;;;;;;133.77;11.98;;;;;;;;;;4984426;28;20058;-52
2023/10/13 02:23:59;;;;;;;205.50;15.68;;;;;;;;;;4985464;28;20038;-52
2023/10/13 02:26:32;;;;;;;177.57;16.30;;;;;;;;;;4984100;28;20354;-53
2023/10/13 02:29:04;;;;;;;127.32;14.00;;;;;;;;;;4988570;28;20028;-53
2023/10/13 02:31:30;;;;;;;164.43;15.45;;;;;;;;;;4987412;28;20045;-54
2023/10/13 02:33:55;;;;;;;175.13;15.85;;;;;;;;;;4985912;28;21125;-54
2023/10/13 02:36:36;;;;;;;167.50;15.07;;;;;;;;;;4983626;28;20041;-55
2023/10/13 02:39:07;;;;;;;200.63;17.45;;;;;;;;;;4984897;28;20096;-53
2023/10/13 02:41:32;;;;;;;118.95;13.38;;;;;;;;;;4986489;28;20244;-54
2023/10/13 02:43:57;;;;;;;169.32;13.32;;;;;;;;;;4987769;28;20028;-53
2023/10/13 02:46:23;;;;;;;89.93;10.63;;;;;;;;;;4986813;28;20426;-54
2023/10/13 02:48:57;;;;;;;187.85;17.20;;;;;;;;;;4987035;28;20669;-54
2023/10/13 02:51:30;;;;;;;137.70;13.27;;;;;;;;;;4986745;28;20038;-54
2023/10/13 02:54:02;;;;;;;134.90;14.90;;;;;;;;;;4985245;28;20370;-53
2023/10/13 02:56:27;;;;;;;144.50;15.55;;;;;;;;;;4987708;28;20042;-54
2023/10/13 02:59:05;;;;;;;125.70;14.67;;;;;;;;;;4988077;28;20029;-54
2023/10/13 03:01:36;;;;;;;165.38;14.75;;;;;;;;;;4986761;28;20293;-53
2023/10/13 03:04:12;;;;;;;168.07;17.17;;;;;;;;;;4986959;28;20018;-53
2023/10/13 03:06:40;;;;;;;157.60;15.70;;;;;;;;;;4985558;28;20042;-54
2023/10/13 03:09:19;;;;;;;128.38;13.73;;;;;;;;;;4988196;28;20064;-53
2023/10/13 03:11:48;;;;;;;148.57;14.10;;;;;;;;;;4988339;28;20820;-55
2023/10/13 03:14:23;;;;;;;131.52;13.80;;;;;;;;;;4987815;28;20354;-54
2023/10/13 03:16:50;;;;;;;169.90;15.70;;;;;;;;;;4985989;28;20030;-55
2023/10/13 03:19:18;;;;;;;189.75;16.45;;;;;;;;;;4985500;28;20470;-55
2023/10/13 03:21:44;;;;;;;131.48;13.90;;;;;;;;;;4986638;28;20129;-55
2023/10/13 03:24:13;;;;;;;197.98;16.23;;;;;;;;;;4984535;28;20113;-56
2023/10/13 03:26:44;;;;;;;116.25;13.20;;;;;;;;;;4985968;28;20530;-54
2023/10/13 03:29:13;;;;;;;162.45;14.18;;;;;;;;;;4987832;28;20026;-54
2023/10/13 03:31:39;;;;;;;144.70;13.40;;;;;;;;;;4988729;28;20042;-55
2023/10/13 03:34:10;;;;;;;141.63;13.77;;;;;;;;;;4986680;28;20045;-54
2023/10/13 03:39:19;;;;;;;108.80;10.65;;;;;;;;;;4984733;28;21013;-56
2023/10/13 03:41:45;;;;;;;153.27;15.17;;;;;;;;;;4985925;28;20597;-54
2023/10/13 03:44:17;;;;;;;210.73;17.05;;;;;;;;;;4985272;28;20339;-55
2023/10/13 03:46:42;;;;;;;121.20;14.15;;;;;;;;;;4986995;28;20037;-54
2023/10/13 03:49:12;;;;;;;203.53;17.17;;;;;;;;;;4984866;28;20255;-53
2023/10/13 03:51:38;;;;;;;112.85;11.38;;;;;;;;;;4987220;28;20301;-54
2023/10/13 03:54:07;;;;;;;195.43;16.48;;;;;;;;;;4986182;28;20084;-54
2023/10/13 03:59:06;;;;;;;169.37;13.87;;;;;;;;;;4985380;28;20025;-54
2023/10/13 04:01:32;;;;;;;186.40;14.43;;;;;;;;;;4986386;28;20022;-55
2023/10/13 04:04:11;;;;;;;164.27;14.95;;;;;;;;;;4983245;28;20025;-53
2023/10/13 04:17:22;;;;;;;173.65;16.95;;;;;;;;;;4983740;28;20045;-55
2023/10/13 04:28:15;;;;;;;134.70;14.13;;;;;;;;;;4985171;28;20081;-55
2023/10/13 04:41:43;;;;;;;132.93;15.48;;;;;;;;;;4984619;28;20512;-53
2023/10/13 04:49:28;;;;;;;;;;;;;;;;;;4983382;28;20394;-53
2023/10/13 04:52:01;;;;;;;140.88;15.50;;;;;;;;;;4984027;28;20409;-54
2023/10/13 04:54:29;;;;;;;177.75;16.88;;;;;;;;;;4982699;28;20500;-53
2023/10/13 05:00:52;;;;;;;171.75;15.15;;;;;;;;;;4985221;28;20374;-54
2023/10/13 06:29:31;;;;;;;93.43;11.95;;;;;;;;;;4988938;28;20166;-56
2023/10/13 06:31:57;;;;;;;98.35;11.65;;;;;;;;;;4987226;28;20252;-55
2023/10/13 06:34:37;;;;;;;143.63;13.90;;;;;;;;;;4982991;28;20305;-55
2023/10/13 06:37:02;;;;;;;138.32;13.57;;;;;;;;;;4983220;28;20041;-55
2023/10/13 06:39:36;;;;;;;110.82;12.52;;;;;;;;;;4986616;28;20027;-55
2023/10/13 06:42:02;;;;;;;130.43;12.40;;;;;;;;;;4986818;28;20033;-55
2023/10/13 06:44:32;;;;;;;99.72;11.48;;;;;;;;;;4986887;28;20025;-55
2023/10/13 06:46:57;;;;;;;112.05;11.38;;;;;;;;;;4995245;28;20214;-55
2023/10/13 06:49:23;;;;;;;177.02;13.98;;;;;;;;;;4987141;28;20022;-55
2023/10/13 06:51:49;;;;;;;129.25;12.02;;;;;;;;;;4986307;28;20030;-54
2023/10/13 06:54:20;;;;;;;187.07;14.85;;;;;;;;;;4985772;28;20018;-57
2023/10/13 06:56:46;;;;;;;110.80;10.88;;;;;;;;;;4988728;28;20277;-57
2023/10/13 06:59:13;;;;;;;159.80;12.88;;;;;;;;;;4986306;28;20022;-56
2023/10/13 07:01:39;;;;;;;138.82;10.93;;;;;;;;;;4989087;28;20094;-56
2023/10/13 07:04:12;;;;;;;139.32;11.20;;;;;;;;;;4985159;28;20045;-55
2023/10/13 07:06:42;;;;;;;135.68;10.73;;;;;;;;;;4986194;28;20084;-54
2023/10/13 07:09:15;;;;;;;107.38;9.90;;;;;;;;;;4987679;28;20430;-56
2023/10/13 07:11:42;;;;;;;120.18;10.45;;;;;;;;;;4984554;28;20044;-55
2023/10/13 07:14:11;;;;;;;158.80;12.43;;;;;;;;;;4985318;28;20167;-56
2023/10/13 07:16:46;;;;;;;69.68;8.23;;;;;;;;;;4985556;28;20034;-56
2023/10/13 07:19:16;;;;;;;164.30;14.40;;;;;;;;;;4987764;28;20409;-55
2023/10/13 07:21:45;;;;;;;209.65;136.25;;;;;;;;;;4989135;28;20046;-56
2023/10/13 07:24:11;;;;;;;99.50;13.07;;;;;;;;;;4989347;28;20072;-54
2023/10/13 07:26:42;;;;;;;122.38;9.15;;;;;;;;;;4990378;28;20454;-56
2023/10/13 07:29:09;;;;;;;111.93;20.30;;;;;;;;;;4991269;28;20026;-57
2023/10/13 07:31:34;;;;;;;100.82;8.05;;;;;;;;;;4989739;28;20038;-55
2023/10/13 07:34:04;;;;;;;236.80;154.85;;;;;;;;;;4986982;28;20214;-56
2023/10/13 07:36:39;;;;;;;162.93;79.10;;;;;;;;;;4988435;28;20096;-55
2023/10/13 07:39:24;;;;;;;394.52;214.65;;;;;;;;;;4987923;28;20057;-55
2023/10/13 07:42:06;;;;;;;395.50;296.58;;;;;;;;;;4988139;28;20073;-56
2023/10/13 07:44:36;;;;;;;194.90;121.60;;;;;;;;;;4990203;28;20018;-55
2023/10/13 07:47:03;;;;;;;204.40;125.25;;;;;;;;;;4990369;28;20034;-56
2023/10/13 07:49:36;;;;;;;334.52;230.50;;;;;;;;;;4989451;28;20056;-56
2023/10/13 07:52:14;;;;;;;364.73;325.73;;;;;;;;;;4989476;28;20053;-56
2023/10/13 07:54:43;;;;;;;197.32;121.05;;;;;;;;;;4990339;28;20023;-56
2023/10/13 07:57:08;;;;;;;233.10;142.23;;;;;;;;;;4990132;28;20058;-57
2023/10/13 07:59:36;;;;;;;87.63;7.88;;;;;;;;;;4988732;28;20028;-56
2023/10/13 08:02:15;;;;;;;99.50;32.08;;;;;;;;;;4989541;28;20056;-56
2023/10/13 08:04:40;;;;;;;410.65;366.80;;;;;;;;;;4988575;28;20916;-55
2023/10/13 08:07:13;;;;;;;416.67;363.50;;;;;;;;;;4988291;28;20607;-57
2023/10/13 08:09:43;;;;;;;376.63;338.33;;;;;;;;;;4991154;28;20366;-56
2023/10/13 08:12:12;;;;;;;369.35;326.92;;;;;;;;;;4988843;28;20058;-56
2023/10/13 08:14:38;;;;;;;299.33;254.30;;;;;;;;;;4991464;28;20106;-56
2023/10/13 08:17:11;;;;;;;416.85;326.85;;;;;;;;;;4989010;28;20033;-57
2023/10/13 08:19:39;;;;;;;404.65;341.98;;;;;;;;;;4990999;28;20629;-55
2023/10/13 08:42:52;;;;;;;441.13;328.42;;;;;;;;;;4987903;28;20053;-56
2023/10/13 08:48:15;;;;;;;267.42;237.23;;;;;;;;;;4987390;28;20036;-57
2023/10/13 08:50:52;;;;;;;272.13;140.32;;;;;;;;;;4987382;28;20044;-57
2023/10/13 09:01:35;;;;;;;412.70;270.38;;;;;;;;;;4991118;28;20133;-56
2023/10/13 09:04:20;;;;;;;401.35;310.23;;;;;;;;;;4990246;28;20675;-56
2023/10/13 09:12:20;;;;;;;345.92;192.63;;;;;;;;;;4989724;28;20037;-55
2023/10/13 09:15:03;;;;;;;244.32;185.50;;;;;;;;;;4992271;28;20077;-56
2023/10/13 09:17:35;;;;;;;417.95;307.48;;;;;;;;;;4990869;28;20050;-56
2023/10/13 09:20:23;;;;;;;264.80;225.85;;;;;;;;;;4994002;28;20044;-56
2023/10/13 09:23:07;;;;;;;263.17;200.05;;;;;;;;;;4991680;28;20073;-57
2023/10/13 09:25:34;;;;;;;389.75;267.27;;;;;;;;;;4988569;28;20036;-56
2023/10/13 09:28:00;;;;;;;278.90;245.57;;;;;;;;;;4991410;28;20513;-54
2023/10/13 09:30:28;;;;;;;393.67;277.27;;;;;;;;;;4991119;28;20029;-55
2023/10/13 09:33:08;;;;;;;332.00;259.35;;;;;;;;;;4989379;28;20314;-56
2023/10/13 09:35:34;;;;;;;433.02;358.10;;;;;;;;;;4989992;28;20164;-55
2023/10/13 09:38:02;;;;;;;394.95;318.85;;;;;;;;;;4989698;28;20243;-54
2023/10/13 09:40:33;;;;;;;382.60;319.00;;;;;;;;;;4990581;28;20026;-57
2023/10/13 09:43:04;;;;;;;404.38;334.30;;;;;;;;;;4993570;28;20026;-55
2023/10/13 09:45:32;;;;;;;;;;;;;;;;;;4990752;28;20034;-54
2023/10/13 09:48:06;;;;;;;235.57;142.65;;;;;;;;;;4991005;28;19932;-55
2023/10/13 09:50:37;;;;;;;381.83;260.77;;;;;;;;;;4987678;28;20042;-55
2023/10/13 09:53:05;;;;;;;362.58;321.58;;;;;;;;;;4990700;28;20462;-56
2023/10/13 09:55:39;;;;;;;366.30;186.80;;;;;;;;;;4989627;28;20046;-55
2023/10/13 09:58:11;;;;;;;371.73;327.50;;;;;;;;;;4988114;28;20149;-54
2023/10/13 10:00:56;;;;;;;535.65;196.05;;;;;;;;;;4989512;28;20037;-55
2023/10/13 10:03:39;;;;;;;370.38;226.38;;;;;;;;;;4993031;28;20064;-57
2023/10/13 10:06:14;;;;;;;412.35;316.58;;;;;;;;;;4992725;28;20033;-56
2023/10/13 10:08:48;;;;;;;282.42;198.60;;;;;;;;;;4989982;28;20018;-57
2023/10/13 10:11:40;;;;;;;357.10;277.77;;;;;;;;;;4991011;28;20046;-55
2023/10/13 10:14:36;;;;;;;283.25;191.90;;;;;;;;;;4989577;28;20109;-55
2023/10/13 10:17:02;;;;;;;324.95;290.27;;;;;;;;;;4988143;28;20124;-56
2023/10/13 10:19:28;;;;;;;326.40;196.63;;;;;;;;;;4991299;28;20120;-56
2023/10/13 10:22:17;;;;;;;341.73;255.02;;;;;;;;;;4990377;28;20042;-56
2023/10/13 10:24:43;;;;;;;291.35;161.57;;;;;;;;;;4988067;28;20030;-55
2023/10/13 10:27:14;;;;;;;190.40;90.15;;;;;;;;;;4988890;28;20327;-54
2023/10/13 10:29:39;;;;;;;337.70;286.13;;;;;;;;;;4988845;28;20524;-53
2023/10/13 10:32:13;;;;;;;304.38;163.25;;;;;;;;;;4989456;28;20125;-53
2023/10/13 10:34:38;;;;;;;247.88;221.23;;;;;;;;;;4987777;28;20086;-52
2023/10/13 10:37:08;;;;;;;362.47;232.57;;;;;;;;;;4988785;28;20034;-55
2023/10/13 10:39:44;;;;;;;396.85;263.15;;;;;;;;;;4989489;28;20029;-53
2023/10/13 10:42:15;;;;;;;359.65;290.85;;;;;;;;;;4990228;28;20034;-57
2023/10/13 10:44:42;;;;;;;259.50;182.90;;;;;;;;;;4988392;28;20104;-56
2023/10/13 10:47:11;;;;;;;376.20;334.52;;;;;;;;;;4988817;28;20297;-55
2023/10/13 10:49:41;;;;;;;433.05;317.40;;;;;;;;;;4987143;28;20022;-56
2023/10/13 10:52:14;;;;;;;241.82;196.27;;;;;;;;;;4989913;28;20019;-57
2023/10/13 10:54:43;;;;;;;230.70;62.53;;;;;;;;;;4987835;28;20449;-56
2023/10/13 10:57:12;;;;;;;298.00;243.10;;;;;;;;;;4989069;28;20045;-56
2023/10/13 10:59:38;;;;;;;234.20;79.32;;;;;;;;;;4992059;28;20054;-58
2023/10/13 11:02:04;;;;;;;421.40;293.02;;;;;;;;;;4989853;28;20053;-56
2023/10/13 11:04:40;;;;;;;438.45;266.77;;;;;;;;;;4990434;28;20029;-57
2023/10/13 11:07:06;;;;;;;287.67;240.40;;;;;;;;;;4990095;28;20032;-56
2023/10/13 11:09:36;;;;;;;317.70;180.65;;;;;;;;;;4992607;28;20354;-56
2023/10/13 11:12:43;;;;;;;229.20;186.90;;;;;;;;;;4989752;28;20053;-57
2023/10/13 11:15:02;;;;;;;226.63;160.38;;;;;;;;;;4990938;28;20057;-55
2023/10/13 11:17:48;;;;;;;254.20;135.35;;;;;;;;;;4989091;28;20030;-56
2023/10/13 11:20:17;;;;;;;211.57;189.32;;;;;;;;;;4988160;28;20023;-55
2023/10/13 11:22:47;;;;;;;279.45;212.68;;;;;;;;;;4988807;28;20026;-57
2023/10/13 11:25:22;;;;;;;159.63;91.75;;;;;;;;;;4989126;28;20317;-55
2023/10/13 11:30:20;;;;;;;252.60;143.95;;;;;;;;;;4989862;28;20168;-55
2023/10/13 11:32:46;;;;;;;342.30;92.07;;;;;;;;;;4989031;28;20057;-57
2023/10/13 11:35:20;;;;;;;254.25;182.15;;;;;;;;;;4991111;28;20228;-55
2023/10/13 11:38:13;;;;;;;205.10;177.82;;;;;;;;;;4989663;28;20017;-56
2023/10/13 11:40:59;;;;;;;265.17;186.45;;;;;;;;;;4989788;28;20050;-55
2023/10/13 11:43:24;;;;;;;245.93;180.45;;;;;;;;;;4988810;28;20490;-54
2023/10/13 11:46:12;;;;;;;198.18;79.95;;;;;;;;;;4991034;28;20042;-54
2023/10/13 11:48:41;;;;;;;402.55;209.90;;;;;;;;;;4988025;28;20501;-55
2023/10/13 11:51:07;;;;;;;232.38;199.35;;;;;;;;;;4991904;28;20034;-54
2023/10/13 11:53:35;;;;;;;265.45;38.30;;;;;;;;;;4988212;28;20072;-54
2023/10/13 11:56:01;;;;;;;274.10;183.63;;;;;;;;;;4988133;28;20034;-53
2023/10/13 11:58:28;;;;;;;258.75;195.82;;;;;;;;;;4989472;28;20061;-55
2023/10/13 12:01:01;;;;;;;180.25;125.28;;;;;;;;;;4986382;28;20065;-54
2023/10/13 12:11:44;;;;;;;289.83;179.35;;;;;;;;;;4987878;28;20105;-55
2023/10/13 12:14:27;;;;;;;242.27;169.85;;;;;;;;;;4988069;28;20142;-55
2023/10/13 12:16:53;;;;;;;250.68;154.27;;;;;;;;;;4988321;28;20117;-55
2023/10/13 12:19:24;;;;;;;239.73;144.00;;;;;;;;;;4987566;28;20105;-56
2023/10/13 12:21:49;;;;;;;231.63;91.65;;;;;;;;;;4988671;28;20497;-54
2023/10/13 12:26:58;;;;;;;294.50;191.57;;;;;;;;;;4985514;28;20037;-55
2023/10/13 12:29:28;;;;;;;236.25;194.55;;;;;;;;;;4993366;28;20029;-56
2023/10/13 12:32:08;;;;;;;245.38;191.10;;;;;;;;;;4990380;28;20038;-55
2023/10/13 12:53:49;;;;;;;311.63;199.43;;;;;;;;;;4991681;28;20089;-56
2023/10/13 12:56:15;;;;;;;235.93;176.77;;;;;;;;;;4990466;28;20042;-56
2023/10/13 12:58:41;;;;;;;275.17;188.30;;;;;;;;;;4992398;28;20100;-56
2023/10/13 13:01:06;;;;;;;285.38;167.20;;;;;;;;;;4989748;28;20106;-55
2023/10/13 13:03:32;;;;;;;320.17;182.73;;;;;;;;;;4990428;28;20545;-55
2023/10/13 13:05:58;;;;;;;235.38;181.10;;;;;;;;;;4990766;28;20048;-55
2023/10/13 13:08:23;;;;;;;268.40;134.32;;;;;;;;;;4990312;28;20030;-54
2023/10/13 13:10:48;;;;;;;248.40;177.60;;;;;;;;;;4989800;28;20594;-55
2023/10/13 13:13:16;;;;;;;225.65;186.93;;;;;;;;;;4991020;28;20406;-56
2023/10/13 13:15:42;;;;;;;301.55;185.65;;;;;;;;;;4990696;28;20076;-55
2023/10/13 13:18:11;;;;;;;226.95;186.35;;;;;;;;;;4992714;28;20026;-55
2023/10/13 13:20:39;;;;;;;269.27;148.55;;;;;;;;;;4989247;28;20030;-55
2023/10/13 13:23:04;;;;;;;252.77;184.57;;;;;;;;;;4993310;28;20052;-55
2023/10/13 13:25:30;;;;;;;242.20;197.20;;;;;;;;;;4989509;28;20030;-54
2023/10/13 13:27:55;;;;;;;256.08;175.32;;;;;;;;;;4991760;28;20022;-54
2023/10/13 13:30:22;;;;;;;240.27;173.77;;;;;;;;;;4991246;28;20762;-54
2023/10/13 13:32:47;;;;;;;358.73;199.50;;;;;;;;;;4992474;28;20026;-54
2023/10/13 13:35:18;;;;;;;229.45;180.43;;;;;;;;;;4991805;28;20048;-54
2023/10/13 13:37:44;;;;;;;378.75;240.90;;;;;;;;;;4990042;28;20049;-53
2023/10/13 13:40:16;;;;;;;257.90;185.38;;;;;;;;;;4992857;28;20034;-55
2023/10/13 13:42:45;;;;;;;394.73;186.55;;;;;;;;;;4989540;28;20520;-55
2023/10/13 13:45:29;;;;;;;264.05;204.32;;;;;;;;;;4989856;28;20638;-55
2023/10/13 13:47:54;;;;;;;297.45;184.45;;;;;;;;;;4989048;28;20295;-55
2023/10/13 13:50:31;;;;;;;210.70;167.15;;;;;;;;;;4990761;28;20120;-56
2023/10/13 13:52:57;;;;;;;497.52;177.95;;;;;;;;;;4993078;28;20489;-57
2023/10/13 13:55:23;;;;;;;284.20;209.00;;;;;;;;;;4990442;28;20034;-54
2023/10/13 13:57:50;;;;;;;334.83;172.60;;;;;;;;;;4988676;28;20022;-55
2023/10/13 14:00:25;;;;;;;367.30;153.15;;;;;;;;;;4988150;28;20604;-55
2023/10/13 14:02:50;;;;;;;192.52;146.68;;;;;;;;;;4988775;28;21394;-54
2023/10/13 14:05:15;;;;;;;258.27;198.10;;;;;;;;;;4987994;28;20289;-55
2023/10/13 14:07:48;;;;;;;293.10;176.35;;;;;;;;;;4988433;28;20021;-54
2023/10/13 14:10:30;;;;;;;272.52;201.65;;;;;;;;;;4989589;28;20434;-56
2023/10/13 14:13:06;;;;;;;254.68;194.15;;;;;;;;;;4990349;28;20015;-53
2023/10/13 14:15:39;;;;;;;273.63;215.32;;;;;;;;;;4990592;28;20105;-52
2023/10/13 14:18:06;;;;;;;324.60;178.30;;;;;;;;;;4984799;28;20365;-54
2023/10/13 14:20:32;;;;;;;325.40;201.05;;;;;;;;;;4986793;28;20061;-55
2023/10/13 14:22:57;;;;;;;309.90;201.90;;;;;;;;;;4986226;28;20104;-54
2023/10/13 14:25:28;;;;;;;326.98;218.20;;;;;;;;;;4987384;28;20235;-54
2023/10/13 14:27:53;;;;;;;248.40;197.83;;;;;;;;;;4986022;28;20018;-54
2023/10/13 14:30:23;;;;;;;267.35;167.82;;;;;;;;;;4985618;28;20037;-54
2023/10/13 14:32:48;;;;;;;332.52;174.38;;;;;;;;;;4987642;28;20148;-56
2023/10/13 14:35:16;;;;;;;232.93;206.77;;;;;;;;;;4987514;28;20413;-53
2023/10/13 14:37:41;;;;;;;367.55;172.20;;;;;;;;;;4985805;28;20026;-55
2023/10/13 14:40:13;;;;;;;292.10;184.33;;;;;;;;;;4987216;28;20041;-57
2023/10/13 14:42:40;;;;;;;325.65;122.82;;;;;;;;;;4984326;28;20681;-56
2023/10/13 14:45:12;;;;;;;249.38;129.27;;;;;;;;;;4986361;28;20342;-54
2023/10/13 14:47:39;;;;;;;286.77;194.23;;;;;;;;;;4986269;28;20039;-56
2023/10/13 14:50:05;;;;;;;250.05;201.65;;;;;;;;;;4983824;28;20062;-58
2023/10/13 14:52:31;;;;;;;214.60;183.43;;;;;;;;;;4984841;28;20109;-55
2023/10/13 14:54:57;;;;;;;231.77;175.43;;;;;;;;;;4986412;28;20680;-54
2023/10/13 14:57:24;;;;;;;255.20;176.82;;;;;;;;;;4986822;28;20133;-56
2023/10/13 14:59:51;;;;;;;313.15;192.02;;;;;;;;;;4985978;28;20470;-56
2023/10/13 15:02:16;;;;;;;305.45;184.13;;;;;;;;;;4984475;28;20100;-55
2023/10/13 15:04:42;;;;;;;400.33;192.60;;;;;;;;;;4982898;28;20390;-57
2023/10/13 15:07:07;;;;;;;302.13;191.27;;;;;;;;;;4984007;28;20029;-56
2023/10/13 15:09:32;;;;;;;317.25;202.55;;;;;;;;;;4984891;28;20108;-55
2023/10/13 15:11:58;;;;;;;310.00;197.30;;;;;;;;;;4984991;28;20129;-57
2023/10/13 15:14:23;;;;;;;290.80;203.88;;;;;;;;;;4986139;28;20281;-56
2023/10/13 15:16:49;;;;;;;371.15;192.27;;;;;;;;;;4984469;28;20064;-57
2023/10/13 15:19:16;;;;;;;305.85;200.63;;;;;;;;;;4986085;28;20041;-56
2023/10/13 15:21:42;;;;;;;384.02;229.85;;;;;;;;;;4985471;28;20036;-55
2023/10/13 15:24:13;;;;;;;281.30;119.03;;;;;;;;;;4984499;28;20030;-56
2023/10/13 15:26:45;;;;;;;278.08;191.18;;;;;;;;;;4984201;28;20394;-56
2023/10/13 15:29:25;;;;;;;275.77;195.60;;;;;;;;;;4985928;28;20050;-54
2023/10/13 15:34:26;;;;;;;256.58;185.85;;;;;;;;;;4986886;28;20026;-55
2023/10/13 15:36:52;;;;;;;334.77;200.57;;;;;;;;;;4986675;28;20113;-56
2023/10/13 15:39:23;;;;;;;263.95;177.38;;;;;;;;;;4986457;28;20109;-56
2023/10/13 15:41:52;;;;;;;381.40;147.70;;;;;;;;;;4983931;28;20038;-56
2023/10/13 15:44:19;;;;;;;371.45;243.05;;;;;;;;;;4984125;28;20034;-56
2023/10/13 15:46:49;;;;;;;359.00;163.48;;;;;;;;;;4986038;28;20057;-54
2023/10/13 15:49:14;;;;;;;232.38;158.15;;;;;;;;;;4987191;28;20431;-56
2023/10/13 15:51:39;;;;;;;239.98;173.93;;;;;;;;;;4985181;28;20042;-55
2023/10/13 15:54:07;;;;;;;279.43;164.40;;;;;;;;;;4986877;28;20247;-57
2023/10/13 15:56:39;;;;;;;241.70;177.73;;;;;;;;;;4986386;28;20788;-53
2023/10/13 15:59:06;;;;;;;226.13;178.05;;;;;;;;;;4986276;28;20018;-55
2023/10/13 16:01:33;;;;;;;283.30;170.18;;;;;;;;;;4983223;28;20088;-55
2023/10/13 16:03:59;;;;;;;279.15;137.85;;;;;;;;;;4985752;28;20018;-55
2023/10/13 16:06:25;;;;;;;387.40;189.52;;;;;;;;;;4986008;28;20048;-53
2023/10/13 16:08:51;;;;;;;395.35;195.45;;;;;;;;;;4985354;28;20055;-53
2023/10/13 16:11:19;;;;;;;603.55;235.55;;;;;;;;;;4986568;28;20116;-54
2023/10/13 16:13:46;;;;;;;893.55;254.82;;;;;;;;;;4985604;28;20060;-56
2023/10/13 16:16:15;;;;;;;1284.63;545.97;;;;;;;;;;4985854;28;20034;-56
2023/10/13 16:18:43;;;;;;;1126.72;315.33;;;;;;;;;;4984884;28;20034;-54
2023/10/13 16:21:08;;;;;;;1229.82;711.65;;;;;;;;;;4985173;28;20185;-56
2023/10/13 16:23:34;;;;;;;1470.90;995.05;;;;;;;;;;4986305;28;20037;-54
2023/10/13 16:26:01;;;;;;;1412.28;987.88;;;;;;;;;;4984507;28;20042;-54
2023/10/13 16:28:27;;;;;;;1465.38;997.05;;;;;;;;;;4983923;28;20034;-54
2023/10/13 16:30:53;;;;;;;362.10;65.88;;;;;;;;;;4983595;28;20497;-53
2023/10/13 16:33:19;;;;;;;268.52;74.35;;;;;;;;;;4984881;28;20022;-54
2023/10/13 16:35:48;;;;;;;368.27;83.93;;;;;;;;;;4984953;28;20038;-53
2023/10/13 16:38:13;;;;;;;259.30;89.40;;;;;;;;;;4986403;28;20501;-53
2023/10/13 16:40:39;;;;;;;279.05;60.72;;;;;;;;;;4983719;28;20129;-52
2023/10/13 16:43:05;;;;;;;237.70;27.77;;;;;;;;;;4985601;28;20023;-55
2023/10/13 16:45:31;;;;;;;250.52;72.80;;;;;;;;;;4984057;28;20046;-52
2023/10/13 16:47:56;;;;;;;315.35;43.63;;;;;;;;;;4985187;28;20097;-53
2023/10/13 16:50:21;;;;;;;254.87;93.27;;;;;;;;;;4984283;28;20109;-52
2023/10/13 16:52:47;;;;;;;310.27;11.88;;;;;;;;;;4988776;28;20693;-53
2023/10/13 16:55:14;;;;;;;268.23;10.75;;;;;;;;;;4986085;28;20410;-52
2023/10/13 16:57:39;;;;;;;178.25;44.45;;;;;;;;;;4986209;28;20014;-53
2023/10/13 17:00:11;;;;;;;116.90;25.67;;;;;;;;;;4984298;28;20429;-55
2023/10/13 17:02:36;;;;;;;;;;;;;;;;;;4983929;28;20045;-52
2023/10/13 17:05:02;;;;;;;200.65;11.38;;;;;;;;;;4986420;28;19909;-57
2023/10/13 17:10:06;;;;;;;750.85;119.20;;;;;;;;;;5957743;22;21655;-52
2023/10/13 17:12:33;;;;;;;350.30;139.52;;;;;;;;;;4903430;28;20042;-53
2023/10/13 17:14:58;;;;;;;402.55;140.30;;;;;;;;;;4930744;28;20034;-54
2023/10/13 17:17:24;;;;;;;317.23;204.35;;;;;;;;;;4949672;28;20031;-54
2023/10/13 17:19:49;;;;;;;325.98;102.00;;;;;;;;;;4949982;28;20320;-55
2023/10/13 17:22:15;;;;;;;307.40;182.20;;;;;;;;;;4953375;28;20062;-54
2023/10/13 17:24:40;;;;;;;220.45;106.00;;;;;;;;;;4954567;28;20138;-56
2023/10/13 17:27:07;;;;;;;257.60;49.73;;;;;;;;;;4952389;28;20038;-55
2023/10/13 17:29:35;;;;;;;222.35;24.70;;;;;;;;;;4953839;28;20277;-53
2023/10/13 17:32:02;;;;;;;239.75;13.45;;;;;;;;;;4948991;28;20034;-55
2023/10/13 17:34:28;;;;;;;308.17;61.20;;;;;;;;;;4947864;28;20487;-54
2023/10/13 17:36:56;;;;;;;237.93;14.70;;;;;;;;;;4948903;28;20035;-53
2023/10/13 17:39:21;;;;;;;166.95;50.00;;;;;;;;;;4951620;28;20022;-54
2023/10/13 17:41:46;;;;;;;225.60;46.23;;;;;;;;;;4947117;28;20031;-54